sensor_id;sensor_type;location;lat;lon;timestamp;pressure;altitude;pressure_sealevel;temperature;humidity
48216;BME280;34005;48.844;10.098;2023-09-12T00:01:12;96396.91;;;20.26;57.55
48216;BME280;34005;48.844;10.098;2023-09-12T00:03:40;96395.00;;;20.22;57.81
48216;BME280;34005;48.844;10.098;2023-09-12T00:06:08;96392.59;;;20.20;57.92
48216;BME280;34005;48.844;10.098;2023-09-12T00:08:35;96385.72;;;20.19;57.72
48216;BME280;34005;48.844;10.098;2023-09-12T00:11:07;96391.53;;;20.16;57.97
48216;BME280;34005;48.844;10.098;2023-09-12T00:13:39;96387.81;;;20.17;57.92
48216;BME280;34005;48.844;10.098;2023-09-12T00:16:08;96383.81;;;20.14;57.79
48216;BME280;34005;48.844;10.098;2023-09-12T00:18:37;96386.94;;;20.11;57.70
48216;BME280;34005;48.844;10.098;2023-09-12T00:21:05;96386.38;;;20.09;57.74
48216;BME280;34005;48.844;10.098;2023-09-12T00:23:33;96383.50;;;20.11;57.92
48216;BME280;34005;48.844;10.098;2023-09-12T00:26:01;96381.91;;;20.10;57.65
48216;BME280;34005;48.844;10.098;2023-09-12T00:28:28;96366.50;;;20.07;57.77
48216;BME280;34005;48.844;10.098;2023-09-12T00:30:57;96374.94;;;20.04;57.85
48216;BME280;34005;48.844;10.098;2023-09-12T00:33:25;96375.19;;;20.02;57.98
48216;BME280;34005;48.844;10.098;2023-09-12T00:35:52;96366.47;;;20.02;58.18
48216;BME280;34005;48.844;10.098;2023-09-12T00:38:20;96361.41;;;20.00;58.13
48216;BME280;34005;48.844;10.098;2023-09-12T00:40:48;96358.19;;;19.98;58.22
48216;BME280;34005;48.844;10.098;2023-09-12T00:43:15;96355.81;;;19.96;58.20
48216;BME280;34005;48.844;10.098;2023-09-12T00:45:43;96353.41;;;19.95;58.16
48216;BME280;34005;48.844;10.098;2023-09-12T00:48:14;96353.66;;;19.93;58.21
48216;BME280;34005;48.844;10.098;2023-09-12T00:50:45;96348.63;;;19.92;57.91
48216;BME280;34005;48.844;10.098;2023-09-12T00:53:14;96344.91;;;19.93;57.80
48216;BME280;34005;48.844;10.098;2023-09-12T00:55:45;96336.41;;;19.91;58.06
48216;BME280;34005;48.844;10.098;2023-09-12T00:58:14;96337.75;;;19.93;57.82
48216;BME280;34005;48.844;10.098;2023-09-12T01:00:41;96338.56;;;19.94;57.56
48216;BME280;34005;48.844;10.098;2023-09-12T01:03:09;96344.41;;;19.96;57.55
48216;BME280;34005;48.844;10.098;2023-09-12T01:05:39;96342.81;;;19.95;57.63
48216;BME280;34005;48.844;10.098;2023-09-12T01:08:09;96337.53;;;19.95;57.67
48216;BME280;34005;48.844;10.098;2023-09-12T01:10:36;96348.91;;;19.95;57.74
48216;BME280;34005;48.844;10.098;2023-09-12T01:13:05;96342.81;;;19.95;57.71
48216;BME280;34005;48.844;10.098;2023-09-12T01:15:33;96345.47;;;19.95;57.95
48216;BME280;34005;48.844;10.098;2023-09-12T01:18:00;96343.84;;;19.94;57.89
48216;BME280;34005;48.844;10.098;2023-09-12T01:20:31;96347.00;;;19.91;57.92
48216;BME280;34005;48.844;10.098;2023-09-12T01:23:11;96340.91;;;19.90;58.28
48216;BME280;34005;48.844;10.098;2023-09-12T01:26:03;96350.22;;;19.93;57.95
48216;BME280;34005;48.844;10.098;2023-09-12T01:28:42;96351.63;;;20.01;58.28
48216;BME280;34005;48.844;10.098;2023-09-12T01:31:12;96354.63;;;20.09;57.99
48216;BME280;34005;48.844;10.098;2023-09-12T01:33:40;96356.03;;;20.17;58.11
48216;BME280;34005;48.844;10.098;2023-09-12T01:36:10;96357.44;;;20.25;58.06
48216;BME280;34005;48.844;10.098;2023-09-12T01:38:38;96358.28;;;20.30;57.97
48216;BME280;34005;48.844;10.098;2023-09-12T01:41:06;96372.88;;;20.33;57.64
48216;BME280;34005;48.844;10.098;2023-09-12T01:43:36;96355.16;;;20.33;58.00
48216;BME280;34005;48.844;10.098;2023-09-12T01:46:07;96356.22;;;20.37;58.31
48216;BME280;34005;48.844;10.098;2023-09-12T01:48:36;96354.13;;;20.40;58.32
48216;BME280;34005;48.844;10.098;2023-09-12T01:51:06;96359.69;;;20.38;58.26
48216;BME280;34005;48.844;10.098;2023-09-12T01:53:35;96361.84;;;20.41;58.37
48216;BME280;34005;48.844;10.098;2023-09-12T01:56:03;96364.53;;;20.46;58.34
48216;BME280;34005;48.844;10.098;2023-09-12T01:58:31;96358.75;;;20.49;58.36
48216;BME280;34005;48.844;10.098;2023-09-12T02:00:59;96359.22;;;20.46;57.85
48216;BME280;34005;48.844;10.098;2023-09-12T02:03:28;96357.28;;;20.36;57.73
48216;BME280;34005;48.844;10.098;2023-09-12T02:05:56;96363.28;;;20.27;57.87
48216;BME280;34005;48.844;10.098;2023-09-12T02:08:23;96359.47;;;20.17;57.81
48216;BME280;34005;48.844;10.098;2023-09-12T02:10:51;96362.06;;;20.12;57.93
48216;BME280;34005;48.844;10.098;2023-09-12T02:13:18;96370.03;;;20.12;57.72
48216;BME280;34005;48.844;10.098;2023-09-12T02:15:46;96364.97;;;20.11;57.66
48216;BME280;34005;48.844;10.098;2023-09-12T02:18:14;96365.72;;;20.06;57.67
48216;BME280;34005;48.844;10.098;2023-09-12T02:20:43;96367.25;;;20.02;57.92
48216;BME280;34005;48.844;10.098;2023-09-12T02:23:12;96366.97;;;19.99;57.93
48216;BME280;34005;48.844;10.098;2023-09-12T02:28:11;96365.59;;;19.96;58.21
48216;BME280;34005;48.844;10.098;2023-09-12T02:30:39;96369.28;;;19.95;57.94
48216;BME280;34005;48.844;10.098;2023-09-12T02:33:08;96362.88;;;19.91;58.17
48216;BME280;34005;48.844;10.098;2023-09-12T02:35:36;96367.06;;;19.87;58.18
48216;BME280;34005;48.844;10.098;2023-09-12T02:38:10;96366.78;;;19.83;58.51
48216;BME280;34005;48.844;10.098;2023-09-12T02:40:43;96362.75;;;19.81;58.36
48216;BME280;34005;48.844;10.098;2023-09-12T02:43:12;96361.63;;;19.76;58.40
48216;BME280;34005;48.844;10.098;2023-09-12T02:45:45;96358.47;;;19.74;58.73
48216;BME280;34005;48.844;10.098;2023-09-12T02:48:15;96364.78;;;19.73;58.83
48216;BME280;34005;48.844;10.098;2023-09-12T02:50:45;96355.25;;;19.72;58.68
48216;BME280;34005;48.844;10.098;2023-09-12T02:53:21;96354.44;;;19.72;58.80
48216;BME280;34005;48.844;10.098;2023-09-12T02:55:52;96357.78;;;19.67;59.00
48216;BME280;34005;48.844;10.098;2023-09-12T02:58:21;96356.69;;;19.63;59.11
48216;BME280;34005;48.844;10.098;2023-09-12T03:00:51;96361.69;;;19.60;59.50
48216;BME280;34005;48.844;10.098;2023-09-12T03:03:22;96356.38;;;19.60;59.63
48216;BME280;34005;48.844;10.098;2023-09-12T03:05:58;96358.31;;;19.64;59.71
48216;BME280;34005;48.844;10.098;2023-09-12T03:08:29;96353.66;;;19.71;59.70
48216;BME280;34005;48.844;10.098;2023-09-12T03:11:00;96356.91;;;19.79;59.76
48216;BME280;34005;48.844;10.098;2023-09-12T03:13:31;96357.53;;;19.86;59.23
48216;BME280;34005;48.844;10.098;2023-09-12T03:16:01;96344.31;;;19.86;59.20
48216;BME280;34005;48.844;10.098;2023-09-12T03:18:33;96347.97;;;19.85;59.29
48216;BME280;34005;48.844;10.098;2023-09-12T03:21:02;96346.88;;;19.81;59.38
48216;BME280;34005;48.844;10.098;2023-09-12T03:23:37;96347.94;;;19.80;59.18
48216;BME280;34005;48.844;10.098;2023-09-12T03:26:07;96344.50;;;19.79;59.54
48216;BME280;34005;48.844;10.098;2023-09-12T03:28:37;96331.50;;;19.78;59.67
48216;BME280;34005;48.844;10.098;2023-09-12T03:31:10;96341.03;;;19.79;59.87
48216;BME280;34005;48.844;10.098;2023-09-12T03:33:43;96331.00;;;19.81;59.46
48216;BME280;34005;48.844;10.098;2023-09-12T03:36:17;96332.63;;;19.82;59.56
48216;BME280;34005;48.844;10.098;2023-09-12T03:38:49;96332.84;;;19.80;59.64
48216;BME280;34005;48.844;10.098;2023-09-12T03:41:18;96328.28;;;19.75;59.55
48216;BME280;34005;48.844;10.098;2023-09-12T03:43:50;96329.28;;;19.69;59.61
48216;BME280;34005;48.844;10.098;2023-09-12T03:46:21;96331.84;;;19.64;59.95
48216;BME280;34005;48.844;10.098;2023-09-12T03:48:50;96332.03;;;19.58;60.18
48216;BME280;34005;48.844;10.098;2023-09-12T03:51:19;96326.91;;;19.51;60.42
48216;BME280;34005;48.844;10.098;2023-09-12T03:53:54;96320.00;;;19.50;60.97
48216;BME280;34005;48.844;10.098;2023-09-12T03:56:23;96319.22;;;19.49;61.04
48216;BME280;34005;48.844;10.098;2023-09-12T03:58:52;96321.06;;;19.49;61.26
48216;BME280;34005;48.844;10.098;2023-09-12T04:01:25;96320.00;;;19.50;61.14
48216;BME280;34005;48.844;10.098;2023-09-12T04:03:55;96320.84;;;19.50;61.19
48216;BME280;34005;48.844;10.098;2023-09-12T04:06:28;96320.00;;;19.50;60.77
48216;BME280;34005;48.844;10.098;2023-09-12T04:09:00;96323.72;;;19.49;61.18
48216;BME280;34005;48.844;10.098;2023-09-12T04:11:29;96323.72;;;19.49;61.39
48216;BME280;34005;48.844;10.098;2023-09-12T04:14:14;96323.22;;;19.52;61.52
48216;BME280;34005;48.844;10.098;2023-09-12T04:16:43;96315.59;;;19.55;61.19
48216;BME280;34005;48.844;10.098;2023-09-12T04:19:14;96316.94;;;19.58;61.20
48216;BME280;34005;48.844;10.098;2023-09-12T04:21:43;96316.44;;;19.61;61.27
48216;BME280;34005;48.844;10.098;2023-09-12T04:24:16;96316.53;;;19.66;61.20
48216;BME280;34005;48.844;10.098;2023-09-12T04:26:47;96321.81;;;19.66;61.04
48216;BME280;34005;48.844;10.098;2023-09-12T04:29:16;96322.38;;;19.68;60.96
48216;BME280;34005;48.844;10.098;2023-09-12T04:31:46;96324.53;;;19.71;60.99
48216;BME280;34005;48.844;10.098;2023-09-12T04:34:15;96328.25;;;19.70;60.76
48216;BME280;34005;48.844;10.098;2023-09-12T04:36:47;96328.81;;;19.72;61.15
48216;BME280;34005;48.844;10.098;2023-09-12T04:39:18;96325.09;;;19.73;61.17
48216;BME280;34005;48.844;10.098;2023-09-12T04:41:49;96320.59;;;19.74;61.08
48216;BME280;34005;48.844;10.098;2023-09-12T04:44:23;96325.41;;;19.77;61.59
48216;BME280;34005;48.844;10.098;2023-09-12T04:46:59;96333.63;;;19.81;60.87
48216;BME280;34005;48.844;10.098;2023-09-12T04:49:32;96330.53;;;19.84;61.73
48216;BME280;34005;48.844;10.098;2023-09-12T04:52:08;96332.19;;;19.90;61.39
48216;BME280;34005;48.844;10.098;2023-09-12T04:54:43;96330.88;;;19.92;61.03
48216;BME280;34005;48.844;10.098;2023-09-12T04:57:24;96335.91;;;19.94;61.21
48216;BME280;34005;48.844;10.098;2023-09-12T04:59:54;96335.19;;;19.99;61.04
48216;BME280;34005;48.844;10.098;2023-09-12T05:02:28;96342.31;;;19.98;60.58
48216;BME280;34005;48.844;10.098;2023-09-12T05:05:05;96331.25;;;20.01;61.16
48216;BME280;34005;48.844;10.098;2023-09-12T05:07:36;96333.94;;;20.06;60.81
48216;BME280;34005;48.844;10.098;2023-09-12T05:10:11;96334.50;;;20.08;60.36
48216;BME280;34005;48.844;10.098;2023-09-12T05:12:44;96332.63;;;20.09;60.88
48216;BME280;34005;48.844;10.098;2023-09-12T05:15:15;96340.84;;;20.07;60.18
48216;BME280;34005;48.844;10.098;2023-09-12T05:17:48;96334.94;;;20.00;60.31
48216;BME280;34005;48.844;10.098;2023-09-12T05:20:23;96335.19;;;19.99;60.77
48216;BME280;34005;48.844;10.098;2023-09-12T05:22:53;96336.78;;;20.00;60.46
48216;BME280;34005;48.844;10.098;2023-09-12T05:25:30;96335.44;;;19.97;60.44
48216;BME280;34005;48.844;10.098;2023-09-12T05:28:06;96337.56;;;20.00;60.75
48216;BME280;34005;48.844;10.098;2023-09-12T05:30:59;96340.84;;;20.07;61.02
48216;BME280;34005;48.844;10.098;2023-09-12T05:33:30;96342.44;;;20.08;60.61
48216;BME280;34005;48.844;10.098;2023-09-12T05:36:02;96337.44;;;20.12;60.28
48216;BME280;34005;48.844;10.098;2023-09-12T05:38:45;96339.84;;;20.13;60.56
48216;BME280;34005;48.844;10.098;2023-09-12T05:41:18;96337.72;;;20.15;60.46
48216;BME280;34005;48.844;10.098;2023-09-12T05:43:50;96325.03;;;20.17;60.45
48216;BME280;34005;48.844;10.098;2023-09-12T05:46:23;96331.97;;;20.19;60.36
48216;BME280;34005;48.844;10.098;2023-09-12T05:49:03;96336.19;;;20.20;60.49
48216;BME280;34005;48.844;10.098;2023-09-12T05:51:37;96333.84;;;20.23;60.91
48216;BME280;34005;48.844;10.098;2023-09-12T05:54:16;96331.50;;;20.27;60.50
48216;BME280;34005;48.844;10.098;2023-09-12T05:56:55;96332.03;;;20.29;60.32
48216;BME280;34005;48.844;10.098;2023-09-12T05:59:28;96334.13;;;20.27;60.23
48216;BME280;34005;48.844;10.098;2023-09-12T06:02:03;96343.69;;;20.28;60.43
48216;BME280;34005;48.844;10.098;2023-09-12T06:04:35;96344.00;;;20.31;60.42
48216;BME280;34005;48.844;10.098;2023-09-12T06:07:10;96339.25;;;20.33;60.22
48216;BME280;34005;48.844;10.098;2023-09-12T06:09:47;96337.44;;;20.39;60.21
48216;BME280;34005;48.844;10.098;2023-09-12T06:12:24;96337.25;;;20.46;60.25
48216;BME280;34005;48.844;10.098;2023-09-12T06:14:57;96340.75;;;20.51;59.99
48216;BME280;34005;48.844;10.098;2023-09-12T06:17:36;96346.91;;;20.57;60.04
48216;BME280;34005;48.844;10.098;2023-09-12T06:20:13;96338.75;;;20.64;59.62
48216;BME280;34005;48.844;10.098;2023-09-12T06:23:02;96336.97;;;20.69;59.57
48216;BME280;34005;48.844;10.098;2023-09-12T06:25:48;96339.63;;;20.74;59.45
48216;BME280;34005;48.844;10.098;2023-09-12T06:28:29;96343.41;;;20.84;59.45
48216;BME280;34005;48.844;10.098;2023-09-12T06:31:09;96346.41;;;20.92;59.05
48216;BME280;34005;48.844;10.098;2023-09-12T06:33:47;96343.28;;;21.01;59.14
48216;BME280;34005;48.844;10.098;2023-09-12T06:36:21;96347.06;;;21.10;58.71
48216;BME280;34005;48.844;10.098;2023-09-12T06:38:55;96345.56;;;21.19;58.66
48216;BME280;34005;48.844;10.098;2023-09-12T06:41:29;96350.91;;;21.29;58.75
48216;BME280;34005;48.844;10.098;2023-09-12T06:44:06;96352.09;;;21.44;58.60
48216;BME280;34005;48.844;10.098;2023-09-12T06:46:50;96350.06;;;21.61;58.25
48216;BME280;34005;48.844;10.098;2023-09-12T06:49:26;96355.44;;;21.76;58.43
48216;BME280;34005;48.844;10.098;2023-09-12T06:52:26;96347.53;;;21.92;58.01
48216;BME280;34005;48.844;10.098;2023-09-12T06:54:57;96353.69;;;22.08;57.53
48216;BME280;34005;48.844;10.098;2023-09-12T06:57:36;96354.84;;;22.22;57.70
48216;BME280;34005;48.844;10.098;2023-09-12T07:00:17;96355.13;;;22.41;57.29
48216;BME280;34005;48.844;10.098;2023-09-12T07:02:55;96355.16;;;22.61;56.95
48216;BME280;34005;48.844;10.098;2023-09-12T07:05:48;96360.50;;;22.87;56.81
48216;BME280;34005;48.844;10.098;2023-09-12T07:08:23;96368.50;;;23.08;56.12
48216;BME280;34005;48.844;10.098;2023-09-12T07:11:07;96367.13;;;23.31;55.54
48216;BME280;34005;48.844;10.098;2023-09-12T07:13:51;96362.03;;;23.55;55.34
48216;BME280;34005;48.844;10.098;2023-09-12T07:16:21;96361.47;;;23.78;54.46
48216;BME280;34005;48.844;10.098;2023-09-12T07:19:05;96358.72;;;23.99;54.20
48216;BME280;34005;48.844;10.098;2023-09-12T07:21:37;96358.66;;;24.14;53.65
48216;BME280;34005;48.844;10.098;2023-09-12T07:24:08;96360.47;;;24.24;53.59
48216;BME280;34005;48.844;10.098;2023-09-12T07:26:35;96363.59;;;24.31;53.21
48216;BME280;34005;48.844;10.098;2023-09-12T07:29:05;96357.97;;;24.38;53.28
48216;BME280;34005;48.844;10.098;2023-09-12T07:31:35;96368.06;;;24.51;52.77
48216;BME280;34005;48.844;10.098;2023-09-12T07:34:03;96364.28;;;24.62;52.67
48216;BME280;34005;48.844;10.098;2023-09-12T07:36:34;96362.53;;;24.77;52.39
48216;BME280;34005;48.844;10.098;2023-09-12T07:39:03;96362.53;;;24.82;52.16
48216;BME280;34005;48.844;10.098;2023-09-12T07:41:31;96362.22;;;24.88;52.37
48216;BME280;34005;48.844;10.098;2023-09-12T07:43:58;96365.06;;;24.97;52.07
48216;BME280;34005;48.844;10.098;2023-09-12T07:46:27;96361.25;;;25.08;51.92
48216;BME280;34005;48.844;10.098;2023-09-12T07:48:56;96371.81;;;25.24;51.96
48216;BME280;34005;48.844;10.098;2023-09-12T07:51:25;96374.25;;;25.49;51.87
48216;BME280;34005;48.844;10.098;2023-09-12T07:53:52;96378.50;;;25.75;51.06
48216;BME280;34005;48.844;10.098;2023-09-12T07:56:20;96377.22;;;25.96;50.11
48216;BME280;34005;48.844;10.098;2023-09-12T07:58:48;96381.00;;;26.14;49.81
48216;BME280;34005;48.844;10.098;2023-09-12T08:01:16;96375.38;;;26.35;49.39
48216;BME280;34005;48.844;10.098;2023-09-12T08:03:43;96383.69;;;26.52;48.80
48216;BME280;34005;48.844;10.098;2023-09-12T08:06:13;96379.97;;;26.72;49.18
48216;BME280;34005;48.844;10.098;2023-09-12T08:08:40;96395.94;;;26.96;49.01
48216;BME280;34005;48.844;10.098;2023-09-12T08:11:11;96384.28;;;27.20;48.24
48216;BME280;34005;48.844;10.098;2023-09-12T08:13:38;96396.25;;;27.41;47.34
48216;BME280;34005;48.844;10.098;2023-09-12T08:16:07;96392.53;;;27.56;47.11
48216;BME280;34005;48.844;10.098;2023-09-12T08:18:35;96394.41;;;27.83;47.03
48216;BME280;34005;48.844;10.098;2023-09-12T08:21:02;96390.84;;;28.15;46.42
48216;BME280;34005;48.844;10.098;2023-09-12T08:23:31;96393.50;;;28.43;45.52
48216;BME280;34005;48.844;10.098;2023-09-12T08:25:59;96393.75;;;28.69;45.20
48216;BME280;34005;48.844;10.098;2023-09-12T08:28:27;96388.41;;;29.14;44.01
48216;BME280;34005;48.844;10.098;2023-09-12T08:30:54;96389.78;;;29.97;42.50
48216;BME280;34005;48.844;10.098;2023-09-12T08:33:22;96393.41;;;30.93;40.33
48216;BME280;34005;48.844;10.098;2023-09-12T08:36:06;96397.41;;;31.69;38.52
48216;BME280;34005;48.844;10.098;2023-09-12T08:38:35;96390.78;;;32.26;37.19
48216;BME280;34005;48.844;10.098;2023-09-12T08:41:03;96392.22;;;32.95;36.26
48216;BME280;34005;48.844;10.098;2023-09-12T08:43:31;96391.19;;;33.67;34.88
48216;BME280;34005;48.844;10.098;2023-09-12T08:45:58;96395.47;;;34.41;33.86
48216;BME280;34005;48.844;10.098;2023-09-12T08:48:27;96400.16;;;35.10;32.04
48216;BME280;34005;48.844;10.098;2023-09-12T08:50:56;96400.00;;;35.78;31.65
48216;BME280;34005;48.844;10.098;2023-09-12T08:53:24;96393.97;;;36.36;30.83
48216;BME280;34005;48.844;10.098;2023-09-12T08:55:53;96385.53;;;36.96;29.65
48216;BME280;34005;48.844;10.098;2023-09-12T08:58:21;96392.13;;;37.57;28.35
48216;BME280;34005;48.844;10.098;2023-09-12T09:00:50;96389.91;;;38.12;27.92
48216;BME280;34005;48.844;10.098;2023-09-12T09:03:20;96387.06;;;38.59;27.29
48216;BME280;34005;48.844;10.098;2023-09-12T09:05:49;96388.38;;;39.02;26.83
48216;BME280;34005;48.844;10.098;2023-09-12T09:08:19;96384.53;;;39.41;25.85
48216;BME280;34005;48.844;10.098;2023-09-12T09:10:58;96389.47;;;39.72;25.62
48216;BME280;34005;48.844;10.098;2023-09-12T09:13:28;96382.69;;;40.00;25.59
48216;BME280;34005;48.844;10.098;2023-09-12T09:16:10;96385.59;;;39.77;25.77
48216;BME280;34005;48.844;10.098;2023-09-12T09:18:54;96385.22;;;39.38;26.52
48216;BME280;34005;48.844;10.098;2023-09-12T09:21:23;96385.38;;;39.11;26.43
48216;BME280;34005;48.844;10.098;2023-09-12T09:23:52;96382.88;;;38.65;27.07
48216;BME280;34005;48.844;10.098;2023-09-12T09:26:22;96379.75;;;38.09;26.75
48216;BME280;34005;48.844;10.098;2023-09-12T09:29:03;96373.00;;;37.53;27.86
48216;BME280;34005;48.844;10.098;2023-09-12T09:31:31;96377.72;;;37.34;28.77
48216;BME280;34005;48.844;10.098;2023-09-12T09:34:00;96377.50;;;37.23;29.00
48216;BME280;34005;48.844;10.098;2023-09-12T09:36:27;96364.16;;;37.14;29.45
48216;BME280;34005;48.844;10.098;2023-09-12T09:38:56;96371.88;;;37.12;28.56
48216;BME280;34005;48.844;10.098;2023-09-12T09:41:27;96369.13;;;37.31;28.74
48216;BME280;34005;48.844;10.098;2023-09-12T09:43:55;96366.19;;;37.63;28.11
48216;BME280;34005;48.844;10.098;2023-09-12T09:46:22;96370.22;;;38.23;27.70
48216;BME280;34005;48.844;10.098;2023-09-12T09:48:51;96368.06;;;38.96;26.21
48216;BME280;34005;48.844;10.098;2023-09-12T09:51:19;96378.13;;;39.70;25.39
48216;BME280;34005;48.844;10.098;2023-09-12T09:53:51;96382.91;;;40.36;24.08
48216;BME280;34005;48.844;10.098;2023-09-12T09:56:19;96372.63;;;40.88;23.81
48216;BME280;34005;48.844;10.098;2023-09-12T09:58:48;96367.66;;;41.23;23.81
48216;BME280;34005;48.844;10.098;2023-09-12T10:01:18;96368.47;;;41.52;23.02
48216;BME280;34005;48.844;10.098;2023-09-12T10:03:47;96361.47;;;41.72;22.35
48216;BME280;34005;48.844;10.098;2023-09-12T10:06:16;96364.19;;;41.87;21.81
48216;BME280;34005;48.844;10.098;2023-09-12T10:08:45;96362.22;;;42.12;21.55
48216;BME280;34005;48.844;10.098;2023-09-12T10:11:14;96364.50;;;42.50;21.49
48216;BME280;34005;48.844;10.098;2023-09-12T10:13:46;96351.44;;;42.83;19.89
48216;BME280;34005;48.844;10.098;2023-09-12T10:16:17;96353.38;;;42.89;20.49
48216;BME280;34005;48.844;10.098;2023-09-12T10:18:56;96351.44;;;42.83;19.74
48216;BME280;34005;48.844;10.098;2023-09-12T10:21:29;96358.16;;;42.64;20.44
48216;BME280;34005;48.844;10.098;2023-09-12T10:23:59;96351.91;;;42.59;21.07
48216;BME280;34005;48.844;10.098;2023-09-12T10:26:27;96348.03;;;42.50;21.20
48216;BME280;34005;48.844;10.098;2023-09-12T10:28:57;96349.28;;;42.24;21.28
48216;BME280;34005;48.844;10.098;2023-09-12T10:31:28;96343.44;;;42.00;21.44
48216;BME280;34005;48.844;10.098;2023-09-12T10:33:56;96339.53;;;41.76;22.02
48216;BME280;34005;48.844;10.098;2023-09-12T10:36:26;96339.94;;;41.53;22.39
48216;BME280;34005;48.844;10.098;2023-09-12T10:38:55;96339.91;;;41.21;22.13
48216;BME280;34005;48.844;10.098;2023-09-12T10:41:23;96337.00;;;40.70;23.42
48216;BME280;34005;48.844;10.098;2023-09-12T10:43:53;96337.19;;;40.26;23.95
48216;BME280;34005;48.844;10.098;2023-09-12T10:46:21;96329.56;;;39.94;24.36
48216;BME280;34005;48.844;10.098;2023-09-12T10:48:51;96331.72;;;39.67;24.51
48216;BME280;34005;48.844;10.098;2023-09-12T10:51:19;96323.75;;;39.47;24.41
48216;BME280;34005;48.844;10.098;2023-09-12T10:53:48;96327.00;;;39.23;25.33
48216;BME280;34005;48.844;10.098;2023-09-12T10:56:18;96327.72;;;39.16;25.24
48216;BME280;34005;48.844;10.098;2023-09-12T10:59:09;96313.47;;;38.92;25.69
48216;BME280;34005;48.844;10.098;2023-09-12T11:01:37;96319.94;;;38.77;25.11
48216;BME280;34005;48.844;10.098;2023-09-12T11:04:31;96318.59;;;38.64;24.99
48216;BME280;34005;48.844;10.098;2023-09-12T11:07:01;96311.03;;;38.50;26.16
48216;BME280;34005;48.844;10.098;2023-09-12T11:09:28;96317.16;;;38.43;25.43
48216;BME280;34005;48.844;10.098;2023-09-12T11:11:58;96316.25;;;38.32;26.25
48216;BME280;34005;48.844;10.098;2023-09-12T11:14:29;96312.19;;;38.19;26.41
48216;BME280;34005;48.844;10.098;2023-09-12T11:17:22;96308.97;;;38.09;25.80
48216;BME280;34005;48.844;10.098;2023-09-12T11:19:52;96303.41;;;38.02;26.61
48216;BME280;34005;48.844;10.098;2023-09-12T11:22:21;96310.19;;;37.89;26.01
48216;BME280;34005;48.844;10.098;2023-09-12T11:24:50;96308.41;;;37.73;26.48
48216;BME280;34005;48.844;10.098;2023-09-12T11:27:17;96309.28;;;37.55;25.87
48216;BME280;34005;48.844;10.098;2023-09-12T11:29:46;96306.25;;;37.37;26.46
48216;BME280;34005;48.844;10.098;2023-09-12T11:32:25;96305.75;;;37.08;26.29
48216;BME280;34005;48.844;10.098;2023-09-12T11:34:55;96313.22;;;36.91;26.98
48216;BME280;34005;48.844;10.098;2023-09-12T11:37:24;96314.53;;;36.78;26.89
48216;BME280;34005;48.844;10.098;2023-09-12T11:39:53;96308.81;;;36.64;27.16
48216;BME280;34005;48.844;10.098;2023-09-12T11:42:21;96306.28;;;36.55;27.85
48216;BME280;34005;48.844;10.098;2023-09-12T11:44:52;96304.34;;;36.56;27.71
48216;BME280;34005;48.844;10.098;2023-09-12T11:47:19;96304.72;;;36.54;27.14
48216;BME280;34005;48.844;10.098;2023-09-12T11:49:48;96308.00;;;36.44;25.94
48216;BME280;34005;48.844;10.098;2023-09-12T11:52:17;96300.38;;;36.30;25.54
48216;BME280;34005;48.844;10.098;2023-09-12T11:54:47;96305.63;;;36.23;26.00
48216;BME280;34005;48.844;10.098;2023-09-12T11:57:15;96301.63;;;36.17;26.38
48216;BME280;34005;48.844;10.098;2023-09-12T11:59:44;96300.22;;;36.07;26.59
48216;BME280;34005;48.844;10.098;2023-09-12T12:02:13;96296.84;;;35.94;26.93
48216;BME280;34005;48.844;10.098;2023-09-12T12:04:41;96303.53;;;35.81;27.09
48216;BME280;34005;48.844;10.098;2023-09-12T12:07:10;96299.78;;;35.69;27.69
48216;BME280;34005;48.844;10.098;2023-09-12T12:09:39;96304.59;;;35.60;27.07
48216;BME280;34005;48.844;10.098;2023-09-12T12:12:11;96291.56;;;35.50;27.33
48216;BME280;34005;48.844;10.098;2023-09-12T12:14:40;96288.25;;;35.41;27.96
48216;BME280;34005;48.844;10.098;2023-09-12T12:17:09;96289.63;;;35.35;27.62
48216;BME280;34005;48.844;10.098;2023-09-12T12:19:37;96278.88;;;35.22;27.40
48216;BME280;34005;48.844;10.098;2023-09-12T12:22:05;96286.41;;;35.13;28.03
48216;BME280;34005;48.844;10.098;2023-09-12T12:24:38;96291.19;;;35.04;27.86
48216;BME280;34005;48.844;10.098;2023-09-12T12:27:08;96285.47;;;34.93;28.15
48216;BME280;34005;48.844;10.098;2023-09-12T12:29:38;96281.38;;;34.83;27.98
48216;BME280;34005;48.844;10.098;2023-09-12T12:32:06;96278.38;;;34.73;28.76
48216;BME280;34005;48.844;10.098;2023-09-12T12:34:36;96277.72;;;34.63;28.54
48216;BME280;34005;48.844;10.098;2023-09-12T12:37:28;96273.56;;;34.54;28.96
48216;BME280;34005;48.844;10.098;2023-09-12T12:39:58;96274.28;;;34.51;29.83
48216;BME280;34005;48.844;10.098;2023-09-12T12:42:33;96274.06;;;34.43;29.90
48216;BME280;34005;48.844;10.098;2023-09-12T12:45:15;96268.34;;;34.33;30.47
48216;BME280;34005;48.844;10.098;2023-09-12T12:47:43;96265.44;;;34.25;30.51
48216;BME280;34005;48.844;10.098;2023-09-12T12:50:12;96265.56;;;34.17;30.44
48216;BME280;34005;48.844;10.098;2023-09-12T12:52:41;96265.34;;;34.10;30.61
48216;BME280;34005;48.844;10.098;2023-09-12T12:55:10;96264.78;;;34.04;31.01
48216;BME280;34005;48.844;10.098;2023-09-12T12:57:40;96255.31;;;33.98;30.78
48216;BME280;34005;48.844;10.098;2023-09-12T13:00:10;96255.91;;;33.91;30.87
48216;BME280;34005;48.844;10.098;2023-09-12T13:02:38;96254.59;;;33.85;31.08
48216;BME280;34005;48.844;10.098;2023-09-12T13:05:20;96253.69;;;33.81;31.68
48216;BME280;34005;48.844;10.098;2023-09-12T13:07:49;96252.78;;;33.77;31.29
48216;BME280;34005;48.844;10.098;2023-09-12T13:10:17;96243.00;;;33.72;31.03
48216;BME280;34005;48.844;10.098;2023-09-12T13:12:46;96240.16;;;33.69;31.02
48216;BME280;34005;48.844;10.098;2023-09-12T13:15:14;96238.50;;;33.64;31.22